Terminal Aerodrome Forecast
Issued by NWS Topeka, KS

Home | Current Version | Previous Version | Text Only | Print | Product List | Glossary On
Versions: 1 2 3 4 5 6 7 8 9 10 11 12 13 14 15
000
FTUS43 KTOP 270943 AAC
TAFTOP
TAF AMD
KTOP 270943Z 2710/2806 09003KT P6SM VCSH SCT060
      TEMPO 2710/2712 31015G25KT 4SM TSRA BR BKN025CB
     FM271400 15006KT P6SM SCT045=

USA.gov is the U.S. government's official web portal to all federal, state and local government web resources and services.